createdAt,value
2022-10-05T00:00:27.464Z,101505.25
2022-10-05T00:02:55.860Z,101500.09
2022-10-05T00:05:32.646Z,101504.34
2022-10-05T00:08:13.027Z,101495.59
2022-10-05T00:10:43.531Z,101504.31
2022-10-05T00:13:21.451Z,101499.84
2022-10-05T00:15:49.993Z,101497.13
2022-10-05T00:18:20.405Z,101476.81
2022-10-05T00:20:48.883Z,101489.12
2022-10-05T00:23:26.091Z,101489.81
2022-10-05T00:25:52.916Z,101485.38
2022-10-05T00:28:30.257Z,101482.78
2022-10-05T00:30:59.300Z,101495.00
2022-10-05T00:33:27.373Z,101494.06
2022-10-05T00:35:55.522Z,101476.28
2022-10-05T00:38:22.558Z,101504.47
2022-10-05T00:41:03.518Z,101495.75
2022-10-05T00:43:49.035Z,101498.22
2022-10-05T00:46:47.099Z,101498.25
2022-10-05T00:49:32.482Z,101499.03
2022-10-05T00:52:41.222Z,101505.84
2022-10-05T00:55:13.649Z,101499.66
2022-10-05T00:57:58.373Z,101500.59
2022-10-05T01:00:26.983Z,101496.06
2022-10-05T01:03:10.330Z,101510.12
2022-10-05T01:06:15.649Z,101514.47
2022-10-05T01:08:54.514Z,101499.25
2022-10-05T01:11:50.484Z,101499.41
2022-10-05T01:14:30.186Z,101510.88
2022-10-05T01:17:09.553Z,101517.87
2022-10-05T01:20:05.572Z,101516.84
2022-10-05T01:22:57.266Z,101517.87
2022-10-05T01:25:42.689Z,101517.69
2022-10-05T01:28:19.299Z,101525.47
2022-10-05T01:31:12.101Z,101517.56
2022-10-05T02:11:45.970Z,101514.28
2022-10-05T02:14:18.556Z,101528.41
2022-10-05T02:16:52.014Z,101503.47
2022-10-05T02:19:25.690Z,101534.44
2022-10-05T02:21:59.779Z,101547.53
2022-10-05T02:24:32.458Z,101519.22
2022-10-05T02:26:59.864Z,101519.19
2022-10-05T02:29:32.358Z,101532.69
2022-10-05T02:32:04.449Z,101528.31
2022-10-05T02:34:39.607Z,101539.69
2022-10-05T02:37:36.044Z,101544.78
2022-10-05T02:40:38.150Z,101544.69
2022-10-05T02:43:24.030Z,101554.25
2022-10-05T02:46:01.414Z,101558.53
2022-10-05T02:48:43.372Z,101555.75
2022-10-05T02:51:39.101Z,101562.69
2022-10-05T02:54:21.990Z,101565.47
2022-10-05T02:57:00.502Z,101550.31
2022-10-05T02:59:38.187Z,101556.53
2022-10-05T03:02:18.847Z,101559.16
2022-10-05T03:04:54.483Z,101528.06
2022-10-05T03:07:27.867Z,101550.09
2022-10-05T03:10:09.920Z,101544.94
2022-10-05T03:12:52.577Z,101543.97
2022-10-05T03:15:49.258Z,101542.34
2022-10-05T03:18:42.963Z,101520.16
2022-10-05T03:21:26.459Z,101512.81
2022-10-05T03:23:53.231Z,101508.44
2022-10-05T03:26:38.285Z,101540.59
2022-10-05T03:29:14.391Z,101525.59
2022-10-05T03:31:48.840Z,101549.34
2022-10-05T03:34:29.176Z,101540.28
2022-10-05T03:37:15.663Z,101552.50
2022-10-05T03:40:01.747Z,101559.41
2022-10-05T03:43:15.477Z,101543.50
2022-10-05T03:45:53.022Z,101570.00
2022-10-05T03:48:32.489Z,101564.25
2022-10-05T03:51:17.404Z,101578.56
2022-10-05T03:53:53.121Z,101568.81
2022-10-05T03:56:32.105Z,101571.34
2022-10-05T03:59:20.782Z,101584.50
2022-10-05T04:02:06.026Z,101580.97
2022-10-05T04:05:13.635Z,101576.78
2022-10-05T04:08:11.610Z,101546.53
2022-10-05T04:10:52.122Z,101561.63
2022-10-05T04:13:26.938Z,101576.59
2022-10-05T04:16:32.271Z,101544.69
2022-10-05T04:19:04.259Z,101569.44
2022-10-05T04:21:40.194Z,101576.47
2022-10-05T04:24:16.164Z,101564.91
2022-10-05T04:26:53.231Z,101563.88
2022-10-05T04:30:00.500Z,101559.59
2022-10-05T04:32:41.985Z,101557.62
2022-10-05T04:35:17.593Z,101562.87
2022-10-05T04:38:17.079Z,101549.75
2022-10-05T04:40:52.090Z,101539.75
2022-10-05T04:43:32.426Z,101552.09
2022-10-05T04:46:21.654Z,101559.28
2022-10-05T04:49:22.566Z,101563.44
2022-10-05T04:51:55.326Z,101560.94
2022-10-05T04:54:35.518Z,101564.44
2022-10-05T04:57:10.628Z,101537.03
2022-10-05T05:00:09.120Z,101552.97
2022-10-05T05:02:59.139Z,101555.78
2022-10-05T05:06:12.134Z,101564.59
2022-10-05T05:08:48.266Z,101565.50
2022-10-05T05:11:27.160Z,101571.84
2022-10-05T05:14:21.582Z,101564.94
2022-10-05T05:17:04.579Z,101574.66
2022-10-05T05:19:40.251Z,101580.03
2022-10-05T05:22:20.521Z,101574.97
2022-10-05T05:25:11.721Z,101560.81
2022-10-05T05:27:52.275Z,101579.59
2022-10-05T05:30:43.984Z,101585.84
2022-10-05T05:33:23.424Z,101586.72
2022-10-05T05:36:13.207Z,101578.94
2022-10-05T05:38:42.687Z,101599.72
2022-10-05T05:41:19.739Z,101605.06
2022-10-05T05:44:25.461Z,101603.53
2022-10-05T05:47:23.323Z,101609.81
2022-10-05T05:50:18.418Z,101618.56
2022-10-05T05:52:58.763Z,101622.38
2022-10-05T05:55:39.526Z,101630.41
2022-10-05T05:58:24.990Z,101621.56
2022-10-05T06:01:01.462Z,101633.31
2022-10-05T06:03:37.629Z,101658.25
2022-10-05T06:06:09.905Z,101653.13
2022-10-05T06:08:51.533Z,101647.94
2022-10-05T06:11:23.855Z,101665.03
2022-10-05T06:13:51.989Z,101657.19
2022-10-05T06:16:25.144Z,101658.16
2022-10-05T06:18:59.399Z,101662.66
2022-10-05T06:21:37.426Z,101650.34
2022-10-05T06:24:10.363Z,101659.63
2022-10-05T06:26:46.517Z,101670.38
2022-10-05T06:29:20.909Z,101665.34
2022-10-05T06:31:58.562Z,101677.84
2022-10-05T06:34:34.987Z,101677.97
2022-10-05T06:37:09.778Z,101683.41
2022-10-05T06:40:09.446Z,101651.66
2022-10-05T06:43:00.428Z,101684.78
2022-10-05T06:45:36.609Z,101691.25
2022-10-05T06:48:25.533Z,101698.53
2022-10-05T06:51:00.539Z,101689.78
2022-10-05T06:53:56.833Z,101706.88
2022-10-05T06:56:48.997Z,101691.31
2022-10-05T06:59:27.700Z,101694.66
2022-10-05T07:02:13.029Z,101664.97
2022-10-05T07:05:04.199Z,101683.03
2022-10-05T07:07:42.962Z,101706.00
2022-10-05T07:10:34.507Z,101698.94
2022-10-05T07:13:36.861Z,101710.53
2022-10-05T07:16:21.980Z,101721.31
2022-10-05T07:19:10.419Z,101717.94
2022-10-05T07:21:46.441Z,101688.97
2022-10-05T07:24:42.542Z,101706.00
2022-10-05T07:27:23.600Z,101717.66
2022-10-05T07:30:05.824Z,101706.34
2022-10-05T07:32:44.315Z,101685.16
2022-10-05T07:36:04.767Z,101702.91
2022-10-05T07:38:46.885Z,101688.81
2022-10-05T07:41:20.958Z,101686.16
2022-10-05T07:44:22.689Z,101683.47
2022-10-05T07:47:03.468Z,101687.87
2022-10-05T07:50:04.112Z,101694.00
2022-10-05T07:52:36.884Z,101707.97
2022-10-05T07:55:25.454Z,101711.37
2022-10-05T07:57:52.250Z,101693.47
2022-10-05T08:00:24.490Z,101685.06
2022-10-05T08:03:10.372Z,101652.22
2022-10-05T08:05:41.957Z,101672.78
2022-10-05T08:08:13.240Z,101656.44
2022-10-05T08:10:55.227Z,101677.00
2022-10-05T08:13:37.875Z,101650.25
2022-10-05T08:16:14.660Z,101663.75
2022-10-05T08:19:19.777Z,101640.88
2022-10-05T08:22:03.252Z,101651.72
2022-10-05T08:24:39.088Z,101649.50
2022-10-05T08:27:15.534Z,101670.13
2022-10-05T08:29:48.413Z,101660.56
2022-10-05T08:32:47.729Z,101670.66
2022-10-05T08:35:37.789Z,101660.63
2022-10-05T08:38:13.697Z,101664.72
2022-10-05T08:41:22.247Z,101671.22
2022-10-05T08:44:03.053Z,101683.94
2022-10-05T08:46:46.380Z,101643.78
2022-10-05T08:49:22.368Z,101661.94
2022-10-05T08:52:17.039Z,101679.12
2022-10-05T08:55:08.488Z,101676.38
2022-10-05T08:57:58.813Z,101667.94
2022-10-05T09:00:39.355Z,101667.37
2022-10-05T09:03:37.199Z,101680.06
2022-10-05T09:06:06.984Z,101669.66
2022-10-05T09:08:44.929Z,101677.06
2022-10-05T09:11:20.416Z,101671.44
2022-10-05T09:14:18.149Z,101679.28
2022-10-05T09:17:04.863Z,101682.00
2022-10-05T09:19:52.645Z,101671.59
2022-10-05T09:22:47.376Z,101672.72
2022-10-05T09:25:26.175Z,101676.50
2022-10-05T09:27:58.984Z,101672.44
2022-10-05T09:30:47.778Z,101669.31
2022-10-05T09:33:27.080Z,101660.03
2022-10-05T09:35:58.066Z,101663.78
2022-10-05T09:38:46.607Z,101657.00
2022-10-05T09:41:32.211Z,101656.69
2022-10-05T09:44:11.353Z,101655.50
2022-10-05T09:47:04.423Z,101655.00
2022-10-05T09:50:09.099Z,101646.66
2022-10-05T09:53:30.089Z,101653.31
2022-10-05T09:56:21.399Z,101648.25
2022-10-05T09:59:16.119Z,101657.66
2022-10-05T10:02:07.796Z,101663.16
2022-10-05T10:05:01.769Z,101672.56
2022-10-05T10:07:58.780Z,101663.38
2022-10-05T10:11:04.234Z,101669.16
2022-10-05T10:13:46.685Z,101663.31
2022-10-05T10:16:35.619Z,101663.25
2022-10-05T10:19:21.193Z,101653.47
2022-10-05T10:22:01.917Z,101648.91
2022-10-05T10:24:43.929Z,101646.28
2022-10-05T10:27:52.380Z,101641.41
2022-10-05T10:30:35.731Z,101649.91
2022-10-05T10:33:14.171Z,101651.34
2022-10-05T10:35:48.439Z,101656.28
2022-10-05T10:38:40.308Z,101659.06
2022-10-05T10:41:22.426Z,101654.34
2022-10-05T10:44:11.210Z,101652.41
2022-10-05T10:46:44.910Z,101653.19
2022-10-05T10:49:33.712Z,101640.84
2022-10-05T10:52:48.123Z,101643.47
2022-10-05T10:55:38.137Z,101658.28
2022-10-05T10:58:52.753Z,101650.47
2022-10-05T11:01:52.687Z,101636.00
2022-10-05T11:04:19.566Z,101635.84
2022-10-05T11:07:23.651Z,101643.34
2022-10-05T11:10:22.908Z,101629.56
2022-10-05T11:12:52.460Z,101642.91
2022-10-05T11:15:47.434Z,101636.75
2022-10-05T11:18:45.928Z,101640.91
2022-10-05T11:21:36.928Z,101631.19
2022-10-05T11:24:28.209Z,101624.84
2022-10-05T11:29:59.401Z,101625.59
2022-10-05T11:32:51.151Z,101622.50
2022-10-05T11:35:39.435Z,101620.25
2022-10-05T11:38:57.956Z,101609.06
2022-10-05T11:41:38.900Z,101608.62
2022-10-05T11:44:33.410Z,101605.91
2022-10-05T11:47:26.422Z,101599.41
2022-10-05T11:50:18.077Z,101567.62
2022-10-05T11:52:59.371Z,101586.22
2022-10-05T11:55:47.995Z,101588.63
2022-10-05T11:58:14.725Z,101586.91
2022-10-05T12:00:57.985Z,101592.16
2022-10-05T12:03:37.148Z,101586.31
2022-10-05T12:06:22.264Z,101592.09
2022-10-05T12:09:26.882Z,101597.66
2022-10-05T12:12:07.824Z,101593.72
2022-10-05T12:15:03.013Z,101587.06
2022-10-05T12:17:56.428Z,101582.84
2022-10-05T12:20:26.605Z,101565.81
2022-10-05T12:23:07.176Z,101569.66
2022-10-05T12:25:45.719Z,101570.38
2022-10-05T12:28:18.328Z,101569.66
2022-10-05T12:31:12.604Z,101550.38
2022-10-05T12:34:01.871Z,101556.97
2022-10-05T12:36:59.708Z,101555.44
2022-10-05T12:39:43.274Z,101537.91
2022-10-05T12:42:21.223Z,101534.47
2022-10-05T12:45:01.283Z,101554.03
2022-10-05T12:48:00.103Z,101543.88
2022-10-05T12:50:36.854Z,101541.81
2022-10-05T12:53:35.169Z,101556.09
2022-10-05T12:56:08.198Z,101559.84
2022-10-05T12:58:35.162Z,101556.53
2022-10-05T13:01:28.585Z,101548.16
2022-10-05T13:04:28.769Z,101555.22
2022-10-05T13:07:29.854Z,101554.81
2022-10-05T13:10:42.575Z,101553.09
2022-10-05T13:13:39.975Z,101554.81
2022-10-05T13:16:22.382Z,101558.09
2022-10-05T13:19:16.041Z,101559.34
2022-10-05T13:22:07.463Z,101548.78
2022-10-05T13:24:40.133Z,101544.88
2022-10-05T13:27:17.869Z,101544.81
2022-10-05T13:30:05.115Z,101553.50
2022-10-05T13:32:40.225Z,101552.69
2022-10-05T13:35:37.709Z,101547.25
2022-10-05T13:38:51.292Z,101550.59
2022-10-05T13:41:31.843Z,101537.25
2022-10-05T13:44:17.048Z,101540.03
2022-10-05T13:46:52.959Z,101555.72
2022-10-05T13:49:38.254Z,101532.47
2022-10-05T13:52:08.774Z,101550.94
2022-10-05T13:54:51.080Z,101555.91
2022-10-05T13:57:27.931Z,101552.53
2022-10-05T14:00:06.165Z,101541.50
2022-10-05T14:02:40.330Z,101538.94
2022-10-05T14:05:27.523Z,101556.22
2022-10-05T14:08:18.974Z,101550.44
2022-10-05T14:10:47.538Z,101550.94
2022-10-05T14:13:34.663Z,101550.84
2022-10-05T14:16:13.635Z,101548.34
2022-10-05T14:19:05.092Z,101548.13
2022-10-05T14:21:42.879Z,101548.56
2022-10-05T14:24:46.649Z,101550.97
2022-10-05T14:27:19.089Z,101521.41
2022-10-05T14:29:54.454Z,101520.59
2022-10-05T14:32:27.157Z,101549.28
2022-10-05T14:35:05.167Z,101535.78
2022-10-05T14:37:43.383Z,101543.88
2022-10-05T14:40:37.472Z,101539.59
2022-10-05T14:43:18.609Z,101527.47
2022-10-05T14:45:57.809Z,101520.16
2022-10-05T14:48:29.761Z,101524.06
2022-10-05T14:50:59.427Z,101516.31
2022-10-05T14:53:41.640Z,101523.09
2022-10-05T14:56:17.053Z,101528.66
2022-10-05T14:58:47.156Z,101528.81
2022-10-05T15:01:20.444Z,101521.78
2022-10-05T15:04:07.032Z,101506.44
2022-10-05T15:06:58.443Z,101516.13
2022-10-05T15:10:04.224Z,101516.41
2022-10-05T15:12:35.435Z,101518.59
2022-10-05T15:15:14.935Z,101517.28
2022-10-05T15:17:52.623Z,101513.94
2022-10-05T15:20:36.040Z,101495.69
2022-10-05T15:23:03.308Z,101499.94
2022-10-05T15:25:42.207Z,101500.88
2022-10-05T15:28:21.515Z,101503.66
2022-10-05T15:31:04.007Z,101505.78
2022-10-05T15:33:39.783Z,101486.59
2022-10-05T15:36:24.650Z,101476.12
2022-10-05T15:39:12.367Z,101514.28
2022-10-05T15:42:02.500Z,101502.75
2022-10-05T15:44:52.197Z,101502.91
2022-10-05T15:47:28.062Z,101501.56
2022-10-05T15:50:10.310Z,101508.69
2022-10-05T15:52:44.046Z,101498.44
2022-10-05T15:55:26.947Z,101500.31
2022-10-05T15:58:31.744Z,101507.50
2022-10-05T16:01:08.076Z,101494.50
2022-10-05T16:03:59.329Z,101510.69
2022-10-05T16:06:50.944Z,101508.25
2022-10-05T16:09:49.809Z,101515.50
2022-10-05T16:12:28.947Z,101508.69
2022-10-05T16:15:16.284Z,101505.38
2022-10-05T16:18:26.935Z,101518.25
2022-10-05T16:21:05.454Z,101510.41
2022-10-05T16:23:44.601Z,101513.22
2022-10-05T16:26:38.670Z,101518.78
2022-10-05T16:29:11.843Z,101523.19
2022-10-05T16:32:25.029Z,101527.72
2022-10-05T16:35:25.382Z,101533.25
2022-10-05T16:38:07.612Z,101533.38
2022-10-05T16:40:50.744Z,101546.09
2022-10-05T16:43:49.353Z,101546.19
2022-10-05T16:46:37.184Z,101544.66
2022-10-05T16:49:13.110Z,101541.34
2022-10-05T16:51:55.002Z,101535.41
2022-10-05T16:54:32.006Z,101550.47
2022-10-05T16:57:25.827Z,101550.62
2022-10-05T17:00:08.881Z,101526.22
2022-10-05T17:02:48.301Z,101557.06
2022-10-05T17:05:21.127Z,101566.09
2022-10-05T17:08:26.538Z,101563.50
2022-10-05T17:11:05.669Z,101568.06
2022-10-05T17:13:41.978Z,101558.47
2022-10-05T17:16:33.723Z,101560.34
2022-10-05T17:19:15.863Z,101567.56
2022-10-05T17:21:50.149Z,101568.56
2022-10-05T17:24:47.721Z,101568.63
2022-10-05T17:27:17.759Z,101570.53
2022-10-05T17:29:52.344Z,101567.97
2022-10-05T17:32:19.108Z,101569.84
2022-10-05T17:35:01.147Z,101573.38
2022-10-05T17:37:27.835Z,101575.28
2022-10-05T17:39:57.266Z,101578.06
2022-10-05T17:42:26.828Z,101574.53
2022-10-05T17:45:14.783Z,101573.72
2022-10-05T17:48:09.715Z,101570.34
2022-10-05T17:51:06.631Z,101570.47
2022-10-05T17:54:01.404Z,101558.28
2022-10-05T17:56:33.888Z,101578.69
2022-10-05T17:59:04.568Z,101563.72
2022-10-05T18:01:35.697Z,101572.63
2022-10-05T18:04:11.948Z,101554.16
2022-10-05T18:06:44.833Z,101576.28
2022-10-05T18:09:20.572Z,101559.59
2022-10-05T18:12:09.685Z,101584.41
2022-10-05T18:15:02.353Z,101572.94
2022-10-05T18:17:40.025Z,101576.50
2022-10-05T18:20:18.496Z,101577.44
2022-10-05T18:22:51.199Z,101580.13
2022-10-05T18:25:33.351Z,101570.47
2022-10-05T18:28:19.066Z,101580.19
2022-10-05T18:31:11.925Z,101584.69
2022-10-05T18:33:44.812Z,101576.84
2022-10-05T18:36:21.384Z,101582.13
2022-10-05T18:38:56.936Z,101584.81
2022-10-05T18:41:54.714Z,101585.72
2022-10-05T18:44:31.929Z,101586.63
2022-10-05T18:47:17.190Z,101584.00
2022-10-05T18:49:53.035Z,101587.56
2022-10-05T18:52:32.510Z,101589.37
2022-10-05T18:55:26.561Z,101590.28
2022-10-05T18:58:30.784Z,101589.37
2022-10-05T19:01:20.660Z,101584.97
2022-10-05T19:03:49.247Z,101592.97
2022-10-05T19:06:33.501Z,101590.34
2022-10-05T19:09:19.941Z,101585.87
2022-10-05T19:11:52.763Z,101588.56
2022-10-05T19:14:29.407Z,101562.09
2022-10-05T19:17:15.020Z,101586.88
2022-10-05T19:19:43.868Z,101586.00
2022-10-05T19:22:25.930Z,101592.19
2022-10-05T19:24:53.148Z,101591.31
2022-10-05T19:27:45.542Z,101600.16
2022-10-05T19:30:18.335Z,101598.38
2022-10-05T19:33:06.882Z,101602.87
2022-10-05T19:36:13.120Z,101607.28
2022-10-05T19:39:04.352Z,101601.09
2022-10-05T19:41:44.590Z,101598.41
2022-10-05T19:44:29.660Z,101603.75
2022-10-05T19:47:02.714Z,101597.56
2022-10-05T19:49:35.517Z,101611.75
2022-10-05T19:52:03.310Z,101615.31
2022-10-05T19:54:30.224Z,101617.06
2022-10-05T19:57:00.717Z,101608.22
2022-10-05T19:59:31.476Z,101609.13
2022-10-05T20:01:59.240Z,101611.78
2022-10-05T20:04:36.323Z,101591.44
2022-10-05T20:07:04.163Z,101594.09
2022-10-05T20:09:53.531Z,101619.75
2022-10-05T20:12:23.135Z,101589.69
2022-10-05T20:15:26.887Z,101613.56
2022-10-05T20:18:12.141Z,101596.78
2022-10-05T20:20:45.738Z,101625.97
2022-10-05T20:23:22.379Z,101634.81
2022-10-05T20:26:09.285Z,101633.91
2022-10-05T20:28:36.454Z,101633.06
2022-10-05T20:31:05.655Z,101642.78
2022-10-05T20:33:34.481Z,101642.78
2022-10-05T20:36:03.744Z,101637.50
2022-10-05T20:38:31.805Z,101629.53
2022-10-05T20:40:58.820Z,101620.69
2022-10-05T20:43:31.829Z,101629.53
2022-10-05T20:45:58.639Z,101607.41
2022-10-05T20:48:26.314Z,101649.88
2022-10-05T20:50:54.206Z,101628.62
2022-10-05T20:53:21.022Z,101643.66
2022-10-05T20:55:47.876Z,101617.13
2022-10-05T20:58:16.365Z,101638.34
2022-10-05T21:01:01.731Z,101619.78
2022-10-05T21:03:28.722Z,101614.44
2022-10-05T21:05:55.547Z,101624.19
2022-10-05T21:08:22.387Z,101636.56
2022-10-05T21:10:50.458Z,101614.44
2022-10-05T21:13:18.473Z,101616.19
2022-10-05T21:15:45.280Z,101640.97
2022-10-05T21:18:12.147Z,101645.38
2022-10-05T21:20:38.975Z,101639.16
2022-10-05T21:23:05.746Z,101637.37
2022-10-05T21:25:33.874Z,101627.63
2022-10-05T21:28:00.709Z,101638.25
2022-10-05T21:30:29.539Z,101637.37
2022-10-05T21:32:56.523Z,101617.00
2022-10-05T21:35:23.373Z,101632.97
2022-10-05T21:37:50.237Z,101611.69
2022-10-05T21:40:17.210Z,101613.44
2022-10-05T21:42:44.045Z,101610.81
2022-10-05T21:45:11.099Z,101603.72
2022-10-05T21:47:38.041Z,101637.37
2022-10-05T21:50:08.025Z,101610.78
2022-10-05T21:52:35.824Z,101612.53
2022-10-05T21:55:05.906Z,101605.44
2022-10-05T21:57:34.718Z,101605.41
2022-10-05T22:00:02.563Z,101620.50
2022-10-05T22:02:29.660Z,101611.66
2022-10-05T22:04:58.179Z,101626.69
2022-10-05T22:07:25.019Z,101601.00
2022-10-05T22:09:53.060Z,101631.06
2022-10-05T22:12:20.121Z,101587.69
2022-10-05T22:14:47.552Z,101600.97
2022-10-05T22:17:21.365Z,101616.91
2022-10-05T22:19:49.197Z,101585.03
2022-10-05T22:22:16.024Z,101608.03
2022-10-05T22:24:43.007Z,101585.00
2022-10-05T22:27:09.825Z,101611.56
2022-10-05T22:29:37.741Z,101587.69
2022-10-05T22:32:04.811Z,101607.16
2022-10-05T22:34:31.703Z,101589.47
2022-10-05T22:36:59.472Z,101604.50
2022-10-05T22:39:26.587Z,101579.72
2022-10-05T22:41:53.436Z,101578.87
2022-10-05T22:44:20.824Z,101580.66
2022-10-05T22:46:47.718Z,101556.75
2022-10-05T22:49:15.015Z,101588.63
2022-10-05T22:51:42.633Z,101570.94
2022-10-05T22:54:09.447Z,101588.63
2022-10-05T22:56:36.319Z,101592.16
2022-10-05T22:59:03.350Z,101574.44
2022-10-05T23:01:30.385Z,101569.16
2022-10-05T23:03:57.416Z,101581.56
2022-10-05T23:06:26.672Z,101564.75
2022-10-05T23:08:54.580Z,101593.03
2022-10-05T23:11:26.939Z,101593.03
2022-10-05T23:13:58.077Z,101574.44
2022-10-05T23:16:27.468Z,101596.59
2022-10-05T23:18:55.079Z,101599.22
2022-10-05T23:21:24.200Z,101595.69
2022-10-05T23:23:51.412Z,101584.16
2022-10-05T23:26:21.878Z,101588.59
2022-10-05T23:28:49.280Z,101589.47
2022-10-05T23:31:19.934Z,101548.78
2022-10-05T23:33:47.320Z,101584.19
2022-10-05T23:36:16.786Z,101594.78
2022-10-05T23:38:44.364Z,101590.34
2022-10-05T23:41:11.738Z,101562.91
2022-10-05T23:43:38.927Z,101558.50
2022-10-05T23:46:07.268Z,101562.91
2022-10-05T23:48:38.013Z,101580.62
2022-10-05T23:51:07.020Z,101587.66
2022-10-05T23:53:36.292Z,101565.53
2022-10-05T23:56:03.668Z,101561.97
2022-10-05T23:58:30.991Z,101567.25
